Cairngorm, United Kingdom
Current Conditions -  °F | °C
As of 1:20 AM on Wednesday 22 Oct 2014 (Local Time) from EGPE Reporting Station
Few Clouds Few Clouds  
Wind Chill: 38°   Ceiling: Unl
Heat Index: 45°   Visibility: 6mi
Dew Point: 41°   Wind: 14mph
Humidity: 87%   Direction: 220°SW
Pressure: 29.94"   Gusts: NA
Location:  57.12°N, 3.64°W
Report Text: EGPE 220020Z AUTO 22012KT 9999 FEW035/// 07/05 Q1014
Loading
Personal Weather Stations






























Interactive Weather Map
Tropical Storm Tracking
New forecast layout! Learn more

10-Day Weather Forecast

Advertisements
Track Severe Weather on mobile